Aérodrome :







RETROUVEZ-NOUS SUR...

 
LOGIN :

S'inscrire | Disclaimer

   EN    FR    IT 

 









Légende :    VFR   VFR Marginal   IFR   IFR Intensif   IFR Très Intensif
Visi : 
Plafond : 
>= 8 km
>= 3000ft
5 à 8 km
1000 à 3000 ft
1500m à 5 km
500 à 1000 ft
800 à 1500m
200 à 500 ft
< 800m
< 200 ft
Symboles :   Orages  Brouillard  Fortes neiges  Fortes précipitations  Vent > 20 kt






- Altitude de l'aérodrome : 9 ft
- Code IATA : SJU


TJSJ - Luis Munoz Marin Int.

DERNIER METAR :
  • 230156Z 04008KT 10SM SCT045 SCT070 27/20 A2996 RMK AO2 SLP143 P0002 T02720200

METARs EXPIRÉS :
  • 230056Z 07007KT 10SM SCT040 SCT070 26/22 A2994 RMK AO2 RAB29E51 SLP139 P0000 T02560217
  • 222356Z 04007KT 10SM SCT049 BKN060 28/19 A2993 RMK AO2 SLP135 60000 T02780189 10283 20278 53012

TAF TJSJ
Valide du 23 à 00h jusqu'au 24 à 00h UTC


222320Z 2300/2324 04007KT P6SM BKN050
FM231400 05013KT P6SM FEW035 SCT050



MET'MAP, la Météo Aéronautique d'un coup d'oeil ! - Copyright ORBIFLY Décembre 2007 - Disclaimer

ORBIFLY MET'MAP TEAM :

Programmation & Développement : Alexandra Zaïnal
Conception & Développement : Baudouin d'Aumeries
Co-Programmation & Développement : Marc-Olivier Méhu
Soutien technique & logistique : Manuel Goepfert

Contact : metmap@orbifly.com




SOURCES & CREDITS :

   NOAA